sensor_id;sensor_type;location;lat;lon;timestamp;temperature;humidity
26579;DHT22;14227;47.674;19.320;2022-09-29T00:01:55;18.30;48.70
26579;DHT22;14227;47.674;19.320;2022-09-29T00:04:21;18.30;48.70
26579;DHT22;14227;47.674;19.320;2022-09-29T00:06:46;18.20;48.50
26579;DHT22;14227;47.674;19.320;2022-09-29T00:09:12;18.20;48.50
26579;DHT22;14227;47.674;19.320;2022-09-29T00:11:38;18.20;48.70
26579;DHT22;14227;47.674;19.320;2022-09-29T00:14:03;18.20;49.00
26579;DHT22;14227;47.674;19.320;2022-09-29T00:16:29;18.20;48.90
26579;DHT22;14227;47.674;19.320;2022-09-29T00:18:55;18.20;49.20
26579;DHT22;14227;47.674;19.320;2022-09-29T00:21:21;18.20;49.40
26579;DHT22;14227;47.674;19.320;2022-09-29T00:23:48;18.20;49.20
26579;DHT22;14227;47.674;19.320;2022-09-29T00:26:21;18.20;49.20
26579;DHT22;14227;47.674;19.320;2022-09-29T00:28:50;18.20;49.20
26579;DHT22;14227;47.674;19.320;2022-09-29T00:31:17;18.20;49.30
26579;DHT22;14227;47.674;19.320;2022-09-29T00:33:43;18.10;49.20
26579;DHT22;14227;47.674;19.320;2022-09-29T00:36:11;18.10;50.30
26579;DHT22;14227;47.674;19.320;2022-09-29T00:38:38;18.10;49.50
26579;DHT22;14227;47.674;19.320;2022-09-29T00:41:04;18.10;49.70
26579;DHT22;14227;47.674;19.320;2022-09-29T00:43:55;18.10;49.60
26579;DHT22;14227;47.674;19.320;2022-09-29T00:47:00;18.10;49.50
26579;DHT22;14227;47.674;19.320;2022-09-29T00:49:28;18.10;49.50
26579;DHT22;14227;47.674;19.320;2022-09-29T00:52:08;18.10;49.90
26579;DHT22;14227;47.674;19.320;2022-09-29T00:54:40;18.10;49.90
26579;DHT22;14227;47.674;19.320;2022-09-29T00:57:08;18.00;50.30
26579;DHT22;14227;47.674;19.320;2022-09-29T00:59:55;18.00;50.40
26579;DHT22;14227;47.674;19.320;2022-09-29T01:02:24;17.90;50.00
26579;DHT22;14227;47.674;19.320;2022-09-29T01:04:52;17.90;50.30
26579;DHT22;14227;47.674;19.320;2022-09-29T01:07:21;17.90;50.50
26579;DHT22;14227;47.674;19.320;2022-09-29T01:09:49;17.90;50.50
26579;DHT22;14227;47.674;19.320;2022-09-29T01:12:17;17.90;50.60
26579;DHT22;14227;47.674;19.320;2022-09-29T01:14:43;17.90;50.50
26579;DHT22;14227;47.674;19.320;2022-09-29T01:17:09;18.00;50.20
26579;DHT22;14227;47.674;19.320;2022-09-29T01:19:39;17.90;50.30
26579;DHT22;14227;47.674;19.320;2022-09-29T01:30:19;18.00;50.10
26579;DHT22;14227;47.674;19.320;2022-09-29T01:46:23;17.80;50.60
26579;DHT22;14227;47.674;19.320;2022-09-29T01:48:53;17.80;50.70
26579;DHT22;14227;47.674;19.320;2022-09-29T01:51:46;17.80;50.60
26579;DHT22;14227;47.674;19.320;2022-09-29T01:54:22;17.80;50.50
26579;DHT22;14227;47.674;19.320;2022-09-29T01:57:02;17.80;50.40
26579;DHT22;14227;47.674;19.320;2022-09-29T01:59:50;17.90;50.70
26579;DHT22;14227;47.674;19.320;2022-09-29T02:02:24;17.80;50.20
26579;DHT22;14227;47.674;19.320;2022-09-29T02:04:54;17.90;50.20
26579;DHT22;14227;47.674;19.320;2022-09-29T02:07:32;17.90;50.10
26579;DHT22;14227;47.674;19.320;2022-09-29T02:10:33;17.90;49.60
26579;DHT22;14227;47.674;19.320;2022-09-29T02:13:03;17.90;49.50
26579;DHT22;14227;47.674;19.320;2022-09-29T02:15:33;17.90;50.10
26579;DHT22;14227;47.674;19.320;2022-09-29T02:18:15;17.90;49.80
26579;DHT22;14227;47.674;19.320;2022-09-29T02:20:43;17.90;50.10
26579;DHT22;14227;47.674;19.320;2022-09-29T02:23:10;17.90;49.80
26579;DHT22;14227;47.674;19.320;2022-09-29T02:25:38;17.90;49.90
26579;DHT22;14227;47.674;19.320;2022-09-29T02:28:05;17.80;49.90
26579;DHT22;14227;47.674;19.320;2022-09-29T02:30:33;17.80;49.60
26579;DHT22;14227;47.674;19.320;2022-09-29T02:32:58;17.90;49.80
26579;DHT22;14227;47.674;19.320;2022-09-29T02:35:28;17.90;49.80
26579;DHT22;14227;47.674;19.320;2022-09-29T02:38:23;17.90;49.60
26579;DHT22;14227;47.674;19.320;2022-09-29T02:41:06;17.90;49.70
26579;DHT22;14227;47.674;19.320;2022-09-29T02:46:35;17.80;50.10
26579;DHT22;14227;47.674;19.320;2022-09-29T02:49:19;17.80;50.00
26579;DHT22;14227;47.674;19.320;2022-09-29T02:51:56;17.70;49.90
26579;DHT22;14227;47.674;19.320;2022-09-29T02:57:07;17.70;49.90
26579;DHT22;14227;47.674;19.320;2022-09-29T03:02:12;17.70;50.00
26579;DHT22;14227;47.674;19.320;2022-09-29T03:04:40;17.70;50.40
26579;DHT22;14227;47.674;19.320;2022-09-29T03:07:06;17.70;50.20
26579;DHT22;14227;47.674;19.320;2022-09-29T03:09:31;17.70;50.20
26579;DHT22;14227;47.674;19.320;2022-09-29T03:11:58;17.70;50.60
26579;DHT22;14227;47.674;19.320;2022-09-29T03:14:23;17.70;50.40
26579;DHT22;14227;47.674;19.320;2022-09-29T03:16:49;17.70;50.30
26579;DHT22;14227;47.674;19.320;2022-09-29T03:19:15;17.70;50.00
26579;DHT22;14227;47.674;19.320;2022-09-29T03:21:40;17.70;50.40
26579;DHT22;14227;47.674;19.320;2022-09-29T03:24:06;17.70;50.30
26579;DHT22;14227;47.674;19.320;2022-09-29T03:26:31;17.70;50.20
26579;DHT22;14227;47.674;19.320;2022-09-29T03:28:57;17.70;50.40
26579;DHT22;14227;47.674;19.320;2022-09-29T03:31:24;17.70;50.40
26579;DHT22;14227;47.674;19.320;2022-09-29T03:33:50;17.70;50.30
26579;DHT22;14227;47.674;19.320;2022-09-29T03:36:15;17.70;50.40
26579;DHT22;14227;47.674;19.320;2022-09-29T03:38:41;17.70;50.50
26579;DHT22;14227;47.674;19.320;2022-09-29T03:41:08;17.70;50.80
26579;DHT22;14227;47.674;19.320;2022-09-29T03:43:34;17.70;50.60
26579;DHT22;14227;47.674;19.320;2022-09-29T03:45:59;17.70;50.60
26579;DHT22;14227;47.674;19.320;2022-09-29T03:48:25;17.70;50.50
26579;DHT22;14227;47.674;19.320;2022-09-29T03:50:54;17.70;50.60
26579;DHT22;14227;47.674;19.320;2022-09-29T03:53:20;17.70;50.40
26579;DHT22;14227;47.674;19.320;2022-09-29T03:55:47;17.70;50.50
26579;DHT22;14227;47.674;19.320;2022-09-29T03:58:13;17.80;50.60
26579;DHT22;14227;47.674;19.320;2022-09-29T04:00:40;17.80;50.80
26579;DHT22;14227;47.674;19.320;2022-09-29T04:03:05;17.80;50.90
26579;DHT22;14227;47.674;19.320;2022-09-29T04:05:31;17.80;50.80
26579;DHT22;14227;47.674;19.320;2022-09-29T04:07:59;17.70;50.60
26579;DHT22;14227;47.674;19.320;2022-09-29T04:10:24;17.70;51.10
26579;DHT22;14227;47.674;19.320;2022-09-29T04:12:50;17.80;50.90
26579;DHT22;14227;47.674;19.320;2022-09-29T04:15:16;17.80;51.00
26579;DHT22;14227;47.674;19.320;2022-09-29T04:17:41;17.70;50.90
26579;DHT22;14227;47.674;19.320;2022-09-29T04:20:07;17.80;50.80
26579;DHT22;14227;47.674;19.320;2022-09-29T04:22:33;17.80;50.70
26579;DHT22;14227;47.674;19.320;2022-09-29T04:24:58;17.80;51.20
26579;DHT22;14227;47.674;19.320;2022-09-29T04:27:24;17.70;51.30
26579;DHT22;14227;47.674;19.320;2022-09-29T04:29:50;17.70;51.30
26579;DHT22;14227;47.674;19.320;2022-09-29T04:32:15;17.70;51.30
26579;DHT22;14227;47.674;19.320;2022-09-29T04:34:41;17.70;51.20
26579;DHT22;14227;47.674;19.320;2022-09-29T04:37:07;17.70;51.10
26579;DHT22;14227;47.674;19.320;2022-09-29T04:39:36;17.70;50.70
26579;DHT22;14227;47.674;19.320;2022-09-29T04:42:01;17.70;50.90
26579;DHT22;14227;47.674;19.320;2022-09-29T04:44:27;17.70;52.40
26579;DHT22;14227;47.674;19.320;2022-09-29T04:46:53;17.70;51.20
26579;DHT22;14227;47.674;19.320;2022-09-29T04:49:18;17.70;51.30
26579;DHT22;14227;47.674;19.320;2022-09-29T04:51:44;17.70;51.60
26579;DHT22;14227;47.674;19.320;2022-09-29T04:54:10;17.70;51.10
26579;DHT22;14227;47.674;19.320;2022-09-29T04:56:36;17.80;51.10
26579;DHT22;14227;47.674;19.320;2022-09-29T04:59:02;17.70;51.00
26579;DHT22;14227;47.674;19.320;2022-09-29T05:01:28;17.80;51.10
26579;DHT22;14227;47.674;19.320;2022-09-29T05:03:54;17.80;50.80
26579;DHT22;14227;47.674;19.320;2022-09-29T05:06:21;17.80;51.30
26579;DHT22;14227;47.674;19.320;2022-09-29T05:08:46;17.80;52.00
26579;DHT22;14227;47.674;19.320;2022-09-29T05:11:12;17.80;51.70
26579;DHT22;14227;47.674;19.320;2022-09-29T05:13:38;17.80;51.50
26579;DHT22;14227;47.674;19.320;2022-09-29T05:16:04;17.70;51.50
26579;DHT22;14227;47.674;19.320;2022-09-29T05:18:31;17.80;51.70
26579;DHT22;14227;47.674;19.320;2022-09-29T05:21:05;17.70;51.90
26579;DHT22;14227;47.674;19.320;2022-09-29T05:23:31;17.80;51.80
26579;DHT22;14227;47.674;19.320;2022-09-29T05:26:05;17.70;52.10
26579;DHT22;14227;47.674;19.320;2022-09-29T05:28:30;17.70;52.00
26579;DHT22;14227;47.674;19.320;2022-09-29T05:31:04;17.60;52.00
26579;DHT22;14227;47.674;19.320;2022-09-29T05:33:31;17.60;52.20
26579;DHT22;14227;47.674;19.320;2022-09-29T05:35:56;17.60;52.10
26579;DHT22;14227;47.674;19.320;2022-09-29T05:38:23;17.60;52.20
26579;DHT22;14227;47.674;19.320;2022-09-29T05:40:49;17.70;52.20
26579;DHT22;14227;47.674;19.320;2022-09-29T05:43:15;17.70;52.20
26579;DHT22;14227;47.674;19.320;2022-09-29T05:45:41;17.60;52.80
26579;DHT22;14227;47.674;19.320;2022-09-29T05:48:07;17.70;52.50
26579;DHT22;14227;47.674;19.320;2022-09-29T05:50:33;17.60;52.40
26579;DHT22;14227;47.674;19.320;2022-09-29T05:53:06;17.70;52.50
26579;DHT22;14227;47.674;19.320;2022-09-29T05:55:32;17.60;52.50
26579;DHT22;14227;47.674;19.320;2022-09-29T05:57:57;17.70;52.90
26579;DHT22;14227;47.674;19.320;2022-09-29T06:00:23;17.70;52.90
26579;DHT22;14227;47.674;19.320;2022-09-29T06:02:49;17.70;52.90
26579;DHT22;14227;47.674;19.320;2022-09-29T06:05:14;17.60;52.80
26579;DHT22;14227;47.674;19.320;2022-09-29T06:07:40;17.70;52.90
26579;DHT22;14227;47.674;19.320;2022-09-29T06:10:06;17.70;52.90
26579;DHT22;14227;47.674;19.320;2022-09-29T06:12:35;17.70;52.90
26579;DHT22;14227;47.674;19.320;2022-09-29T06:15:05;17.70;52.90
26579;DHT22;14227;47.674;19.320;2022-09-29T06:17:30;17.70;52.90
26579;DHT22;14227;47.674;19.320;2022-09-29T06:19:56;17.70;52.90
26579;DHT22;14227;47.674;19.320;2022-09-29T06:22:22;17.70;52.90
26579;DHT22;14227;47.674;19.320;2022-09-29T06:24:48;17.70;52.90
26579;DHT22;14227;47.674;19.320;2022-09-29T06:27:13;17.70;53.10
26579;DHT22;14227;47.674;19.320;2022-09-29T06:29:41;17.70;52.90
26579;DHT22;14227;47.674;19.320;2022-09-29T06:32:07;17.70;52.90
26579;DHT22;14227;47.674;19.320;2022-09-29T06:34:33;17.70;52.90
26579;DHT22;14227;47.674;19.320;2022-09-29T06:36:58;17.70;53.10
26579;DHT22;14227;47.674;19.320;2022-09-29T06:40:04;17.70;52.90
26579;DHT22;14227;47.674;19.320;2022-09-29T06:42:30;17.70;52.90
26579;DHT22;14227;47.674;19.320;2022-09-29T06:44:55;17.70;52.90
26579;DHT22;14227;47.674;19.320;2022-09-29T06:47:21;17.70;53.50
26579;DHT22;14227;47.674;19.320;2022-09-29T06:49:47;17.70;53.20
26579;DHT22;14227;47.674;19.320;2022-09-29T06:52:15;17.70;53.40
26579;DHT22;14227;47.674;19.320;2022-09-29T06:54:41;17.70;53.40
26579;DHT22;14227;47.674;19.320;2022-09-29T06:57:07;17.70;54.00
26579;DHT22;14227;47.674;19.320;2022-09-29T06:59:33;17.70;54.30
26579;DHT22;14227;47.674;19.320;2022-09-29T07:01:58;17.70;54.40
26579;DHT22;14227;47.674;19.320;2022-09-29T07:04:24;17.60;54.20
26579;DHT22;14227;47.674;19.320;2022-09-29T07:06:50;17.60;53.80
26579;DHT22;14227;47.674;19.320;2022-09-29T07:09:16;17.60;53.60
26579;DHT22;14227;47.674;19.320;2022-09-29T07:11:48;17.70;54.30
26579;DHT22;14227;47.674;19.320;2022-09-29T07:14:15;17.70;54.90
26579;DHT22;14227;47.674;19.320;2022-09-29T07:16:41;17.70;54.70
26579;DHT22;14227;47.674;19.320;2022-09-29T07:19:07;17.70;54.30
26579;DHT22;14227;47.674;19.320;2022-09-29T07:21:33;17.70;54.40
26579;DHT22;14227;47.674;19.320;2022-09-29T07:23:59;17.80;55.10
26579;DHT22;14227;47.674;19.320;2022-09-29T07:26:25;17.70;54.20
26579;DHT22;14227;47.674;19.320;2022-09-29T07:28:51;17.70;54.10
26579;DHT22;14227;47.674;19.320;2022-09-29T07:31:19;17.80;54.50
26579;DHT22;14227;47.674;19.320;2022-09-29T07:33:46;17.80;54.10
26579;DHT22;14227;47.674;19.320;2022-09-29T07:36:14;17.80;53.80
26579;DHT22;14227;47.674;19.320;2022-09-29T07:38:40;17.80;54.50
26579;DHT22;14227;47.674;19.320;2022-09-29T07:41:07;17.80;54.80
26579;DHT22;14227;47.674;19.320;2022-09-29T07:43:34;17.80;55.20
26579;DHT22;14227;47.674;19.320;2022-09-29T07:46:00;17.80;55.10
26579;DHT22;14227;47.674;19.320;2022-09-29T07:48:26;17.80;55.00
26579;DHT22;14227;47.674;19.320;2022-09-29T07:51:20;17.80;54.40
26579;DHT22;14227;47.674;19.320;2022-09-29T07:53:45;17.80;54.40
26579;DHT22;14227;47.674;19.320;2022-09-29T07:56:15;17.80;54.80
26579;DHT22;14227;47.674;19.320;2022-09-29T07:58:43;17.80;55.20
26579;DHT22;14227;47.674;19.320;2022-09-29T08:01:11;17.80;54.80
26579;DHT22;14227;47.674;19.320;2022-09-29T08:03:39;17.90;54.80
26579;DHT22;14227;47.674;19.320;2022-09-29T08:06:06;17.90;54.10
26579;DHT22;14227;47.674;19.320;2022-09-29T08:08:34;17.90;54.00
26579;DHT22;14227;47.674;19.320;2022-09-29T08:11:05;18.00;53.80
26579;DHT22;14227;47.674;19.320;2022-09-29T08:13:31;18.00;53.40
26579;DHT22;14227;47.674;19.320;2022-09-29T08:15:59;18.00;54.20
26579;DHT22;14227;47.674;19.320;2022-09-29T08:18:26;18.00;53.80
26579;DHT22;14227;47.674;19.320;2022-09-29T08:20:52;18.00;53.10
26579;DHT22;14227;47.674;19.320;2022-09-29T08:23:19;18.00;53.80
26579;DHT22;14227;47.674;19.320;2022-09-29T08:25:45;18.00;53.90
26579;DHT22;14227;47.674;19.320;2022-09-29T08:28:10;18.10;53.90
26579;DHT22;14227;47.674;19.320;2022-09-29T08:30:36;18.10;53.30
26579;DHT22;14227;47.674;19.320;2022-09-29T08:33:03;18.10;54.00
26579;DHT22;14227;47.674;19.320;2022-09-29T08:48:22;18.10;54.50
26579;DHT22;14227;47.674;19.320;2022-09-29T08:51:51;18.10;54.60
26579;DHT22;14227;47.674;19.320;2022-09-29T09:41:53;18.20;58.60
26579;DHT22;14227;47.674;19.320;2022-09-29T10:05:11;18.40;58.90
26579;DHT22;14227;47.674;19.320;2022-09-29T10:07:37;18.30;58.80
26579;DHT22;14227;47.674;19.320;2022-09-29T10:10:13;18.30;59.40
26579;DHT22;14227;47.674;19.320;2022-09-29T10:19:11;18.50;58.60
26579;DHT22;14227;47.674;19.320;2022-09-29T10:24:18;18.50;58.20
26579;DHT22;14227;47.674;19.320;2022-09-29T10:37:46;18.60;57.80
26579;DHT22;14227;47.674;19.320;2022-09-29T10:43:39;18.70;58.00
26579;DHT22;14227;47.674;19.320;2022-09-29T10:46:37;18.70;58.20
26579;DHT22;14227;47.674;19.320;2022-09-29T10:49:16;18.80;57.80
26579;DHT22;14227;47.674;19.320;2022-09-29T10:52:03;18.80;57.70
26579;DHT22;14227;47.674;19.320;2022-09-29T10:54:35;18.90;57.60
26579;DHT22;14227;47.674;19.320;2022-09-29T10:57:12;18.90;57.30
26579;DHT22;14227;47.674;19.320;2022-09-29T10:59:46;19.00;57.80
26579;DHT22;14227;47.674;19.320;2022-09-29T11:02:22;19.00;57.00
26579;DHT22;14227;47.674;19.320;2022-09-29T11:04:50;19.10;56.80
26579;DHT22;14227;47.674;19.320;2022-09-29T11:07:17;19.00;56.60
26579;DHT22;14227;47.674;19.320;2022-09-29T11:09:43;19.10;56.60
26579;DHT22;14227;47.674;19.320;2022-09-29T11:12:33;19.20;56.20
26579;DHT22;14227;47.674;19.320;2022-09-29T11:15:00;19.20;55.70
26579;DHT22;14227;47.674;19.320;2022-09-29T11:17:35;19.20;56.00
26579;DHT22;14227;47.674;19.320;2022-09-29T11:20:05;19.30;56.30
26579;DHT22;14227;47.674;19.320;2022-09-29T11:23:08;19.30;56.50
26579;DHT22;14227;47.674;19.320;2022-09-29T11:31:25;19.40;56.20
26579;DHT22;14227;47.674;19.320;2022-09-29T11:38:01;19.50;55.80
26579;DHT22;14227;47.674;19.320;2022-09-29T11:42:43;19.60;55.90
26579;DHT22;14227;47.674;19.320;2022-09-29T11:45:12;19.70;56.10
26579;DHT22;14227;47.674;19.320;2022-09-29T12:01:55;19.90;55.00
26579;DHT22;14227;47.674;19.320;2022-09-29T12:05:02;20.00;55.10
26579;DHT22;14227;47.674;19.320;2022-09-29T12:08:31;20.00;55.00
26579;DHT22;14227;47.674;19.320;2022-09-29T12:13:37;20.00;55.00
26579;DHT22;14227;47.674;19.320;2022-09-29T12:16:19;20.10;54.50
26579;DHT22;14227;47.674;19.320;2022-09-29T12:19:03;20.10;55.10
26579;DHT22;14227;47.674;19.320;2022-09-29T12:21:40;20.10;55.10
26579;DHT22;14227;47.674;19.320;2022-09-29T12:24:11;20.10;54.20
26579;DHT22;14227;47.674;19.320;2022-09-29T12:26:39;20.10;53.90
26579;DHT22;14227;47.674;19.320;2022-09-29T12:29:21;20.20;54.30
26579;DHT22;14227;47.674;19.320;2022-09-29T12:31:51;20.20;54.00
26579;DHT22;14227;47.674;19.320;2022-09-29T12:37:24;20.40;54.70
26579;DHT22;14227;47.674;19.320;2022-09-29T12:40:02;20.40;54.50
26579;DHT22;14227;47.674;19.320;2022-09-29T12:48:57;20.40;54.20
26579;DHT22;14227;47.674;19.320;2022-09-29T12:51:35;20.50;54.00
26579;DHT22;14227;47.674;19.320;2022-09-29T12:54:13;20.40;54.00
26579;DHT22;14227;47.674;19.320;2022-09-29T12:57:01;20.40;54.60
26579;DHT22;14227;47.674;19.320;2022-09-29T13:02:04;20.50;54.50
26579;DHT22;14227;47.674;19.320;2022-09-29T13:21:46;20.70;55.00
26579;DHT22;14227;47.674;19.320;2022-09-29T13:27:40;20.70;55.70
26579;DHT22;14227;47.674;19.320;2022-09-29T13:30:33;20.70;55.70
26579;DHT22;14227;47.674;19.320;2022-09-29T13:32:46;20.70;55.70
26579;DHT22;14227;47.674;19.320;2022-09-29T13:35:20;20.70;55.70
26579;DHT22;14227;47.674;19.320;2022-09-29T13:37:52;20.60;55.60
26579;DHT22;14227;47.674;19.320;2022-09-29T13:40:24;20.50;55.50
26579;DHT22;14227;47.674;19.320;2022-09-29T13:42:53;20.60;55.60
26579;DHT22;14227;47.674;19.320;2022-09-29T13:50:45;20.60;55.40
26579;DHT22;14227;47.674;19.320;2022-09-29T13:56:13;20.60;55.10
26579;DHT22;14227;47.674;19.320;2022-09-29T14:01:09;20.60;55.10
26579;DHT22;14227;47.674;19.320;2022-09-29T14:06:12;20.50;54.50
26579;DHT22;14227;47.674;19.320;2022-09-29T14:09:03;20.60;54.40
26579;DHT22;14227;47.674;19.320;2022-09-29T14:11:42;20.60;54.20
26579;DHT22;14227;47.674;19.320;2022-09-29T14:14:19;20.50;54.10
26579;DHT22;14227;47.674;19.320;2022-09-29T14:21:57;20.40;53.60
26579;DHT22;14227;47.674;19.320;2022-09-29T14:29:46;20.40;53.50
26579;DHT22;14227;47.674;19.320;2022-09-29T14:32:25;20.40;53.70
26579;DHT22;14227;47.674;19.320;2022-09-29T14:34:53;20.40;53.50
26579;DHT22;14227;47.674;19.320;2022-09-29T14:37:22;20.30;53.50
26579;DHT22;14227;47.674;19.320;2022-09-29T14:39:49;20.30;53.40
26579;DHT22;14227;47.674;19.320;2022-09-29T14:42:35;20.30;53.20
26579;DHT22;14227;47.674;19.320;2022-09-29T14:45:02;20.30;53.40
26579;DHT22;14227;47.674;19.320;2022-09-29T14:47:57;20.30;53.40
26579;DHT22;14227;47.674;19.320;2022-09-29T14:51:09;20.30;54.20
26579;DHT22;14227;47.674;19.320;2022-09-29T14:54:09;20.30;53.10
26579;DHT22;14227;47.674;19.320;2022-09-29T15:04:41;20.30;53.10
26579;DHT22;14227;47.674;19.320;2022-09-29T15:07:12;20.30;53.20
26579;DHT22;14227;47.674;19.320;2022-09-29T15:09:42;20.30;53.10
26579;DHT22;14227;47.674;19.320;2022-09-29T15:12:20;20.30;53.00
26579;DHT22;14227;47.674;19.320;2022-09-29T15:14:46;20.30;52.80
26579;DHT22;14227;47.674;19.320;2022-09-29T15:25:29;20.20;52.40
26579;DHT22;14227;47.674;19.320;2022-09-29T15:28:18;20.20;52.60
26579;DHT22;14227;47.674;19.320;2022-09-29T15:30:49;20.30;52.70
26579;DHT22;14227;47.674;19.320;2022-09-29T15:33:24;20.30;53.00
26579;DHT22;14227;47.674;19.320;2022-09-29T15:38:31;20.30;52.70
26579;DHT22;14227;47.674;19.320;2022-09-29T15:43:40;20.40;52.60
26579;DHT22;14227;47.674;19.320;2022-09-29T15:46:23;20.40;52.70
26579;DHT22;14227;47.674;19.320;2022-09-29T15:49:18;20.40;52.50
26579;DHT22;14227;47.674;19.320;2022-09-29T15:54:53;20.40;52.30
26579;DHT22;14227;47.674;19.320;2022-09-29T16:03:15;20.50;52.00
26579;DHT22;14227;47.674;19.320;2022-09-29T16:05:51;20.50;51.80
26579;DHT22;14227;47.674;19.320;2022-09-29T16:08:24;20.50;51.80
26579;DHT22;14227;47.674;19.320;2022-09-29T16:10:53;20.50;51.60
26579;DHT22;14227;47.674;19.320;2022-09-29T16:13:22;20.50;51.50
26579;DHT22;14227;47.674;19.320;2022-09-29T16:15:51;20.50;51.40
26579;DHT22;14227;47.674;19.320;2022-09-29T16:21:20;20.50;51.20
26579;DHT22;14227;47.674;19.320;2022-09-29T16:23:47;20.50;51.20
26579;DHT22;14227;47.674;19.320;2022-09-29T16:27:01;20.40;51.00
26579;DHT22;14227;47.674;19.320;2022-09-29T16:29:33;20.40;50.80
26579;DHT22;14227;47.674;19.320;2022-09-29T16:32:34;20.40;51.00
26579;DHT22;14227;47.674;19.320;2022-09-29T16:34:47;20.40;50.80
26579;DHT22;14227;47.674;19.320;2022-09-29T16:37:15;20.40;50.90
26579;DHT22;14227;47.674;19.320;2022-09-29T16:39:46;20.40;50.70
26579;DHT22;14227;47.674;19.320;2022-09-29T16:42:23;20.40;50.70
26579;DHT22;14227;47.674;19.320;2022-09-29T16:44:50;20.40;50.50
26579;DHT22;14227;47.674;19.320;2022-09-29T16:47:26;20.30;50.40
26579;DHT22;14227;47.674;19.320;2022-09-29T16:49:59;20.30;50.20
26579;DHT22;14227;47.674;19.320;2022-09-29T17:00:16;20.00;50.30
26579;DHT22;14227;47.674;19.320;2022-09-29T17:02:43;20.00;50.50
26579;DHT22;14227;47.674;19.320;2022-09-29T17:05:08;19.90;50.40
26579;DHT22;14227;47.674;19.320;2022-09-29T17:07:39;19.90;50.40
26579;DHT22;14227;47.674;19.320;2022-09-29T17:10:06;19.90;50.40
26579;DHT22;14227;47.674;19.320;2022-09-29T17:12:38;19.90;50.40
26579;DHT22;14227;47.674;19.320;2022-09-29T17:15:05;19.80;50.20
26579;DHT22;14227;47.674;19.320;2022-09-29T17:17:31;19.90;50.20
26579;DHT22;14227;47.674;19.320;2022-09-29T17:19:58;19.80;50.00
26579;DHT22;14227;47.674;19.320;2022-09-29T17:22:30;19.90;50.00
26579;DHT22;14227;47.674;19.320;2022-09-29T17:24:57;19.90;49.90
26579;DHT22;14227;47.674;19.320;2022-09-29T17:27:23;19.80;49.80
26579;DHT22;14227;47.674;19.320;2022-09-29T17:30:09;19.80;49.70
26579;DHT22;14227;47.674;19.320;2022-09-29T17:32:35;19.80;49.70
26579;DHT22;14227;47.674;19.320;2022-09-29T17:35:02;19.70;49.50
26579;DHT22;14227;47.674;19.320;2022-09-29T17:37:27;19.70;49.50
26579;DHT22;14227;47.674;19.320;2022-09-29T17:39:53;19.70;49.50
26579;DHT22;14227;47.674;19.320;2022-09-29T17:42:21;19.60;49.40
26579;DHT22;14227;47.674;19.320;2022-09-29T17:44:50;19.60;49.50
26579;DHT22;14227;47.674;19.320;2022-09-29T17:47:16;19.60;49.50
26579;DHT22;14227;47.674;19.320;2022-09-29T17:49:42;19.50;49.20
26579;DHT22;14227;47.674;19.320;2022-09-29T17:52:08;19.50;49.20
26579;DHT22;14227;47.674;19.320;2022-09-29T17:54:37;19.50;49.20
26579;DHT22;14227;47.674;19.320;2022-09-29T17:57:04;19.50;49.20
26579;DHT22;14227;47.674;19.320;2022-09-29T17:59:29;19.50;49.20
26579;DHT22;14227;47.674;19.320;2022-09-29T18:02:00;19.40;49.00
26579;DHT22;14227;47.674;19.320;2022-09-29T18:04:26;19.40;49.10
26579;DHT22;14227;47.674;19.320;2022-09-29T18:06:51;19.30;49.00
26579;DHT22;14227;47.674;19.320;2022-09-29T18:09:17;19.30;49.00
26579;DHT22;14227;47.674;19.320;2022-09-29T18:11:43;19.30;49.00
26579;DHT22;14227;47.674;19.320;2022-09-29T18:14:10;19.30;49.00
26579;DHT22;14227;47.674;19.320;2022-09-29T18:16:35;19.20;48.90
26579;DHT22;14227;47.674;19.320;2022-09-29T18:19:01;19.20;48.90
26579;DHT22;14227;47.674;19.320;2022-09-29T18:21:27;19.20;48.90
26579;DHT22;14227;47.674;19.320;2022-09-29T18:23:54;19.20;48.90
26579;DHT22;14227;47.674;19.320;2022-09-29T18:26:19;19.10;48.80
26579;DHT22;14227;47.674;19.320;2022-09-29T18:28:45;19.10;48.80
26579;DHT22;14227;47.674;19.320;2022-09-29T18:33:47;19.00;48.60
26579;DHT22;14227;47.674;19.320;2022-09-29T18:36:13;19.00;48.70
26579;DHT22;14227;47.674;19.320;2022-09-29T18:38:39;18.90;48.60
26579;DHT22;14227;47.674;19.320;2022-09-29T18:41:05;18.90;48.60
26579;DHT22;14227;47.674;19.320;2022-09-29T18:43:34;18.90;48.50
26579;DHT22;14227;47.674;19.320;2022-09-29T18:46:01;18.80;48.50
26579;DHT22;14227;47.674;19.320;2022-09-29T18:48:26;18.80;48.50
26579;DHT22;14227;47.674;19.320;2022-09-29T18:50:52;18.80;48.50
26579;DHT22;14227;47.674;19.320;2022-09-29T18:53:21;18.80;48.50
26579;DHT22;14227;47.674;19.320;2022-09-29T18:55:47;18.80;48.40
26579;DHT22;14227;47.674;19.320;2022-09-29T18:58:15;18.70;48.20
26579;DHT22;14227;47.674;19.320;2022-09-29T19:00:43;18.70;48.00
26579;DHT22;14227;47.674;19.320;2022-09-29T19:03:10;18.70;48.10
26579;DHT22;14227;47.674;19.320;2022-09-29T19:05:40;18.60;48.10
26579;DHT22;14227;47.674;19.320;2022-09-29T19:08:06;18.70;48.10
26579;DHT22;14227;47.674;19.320;2022-09-29T19:10:34;18.60;47.80
26579;DHT22;14227;47.674;19.320;2022-09-29T19:13:02;18.60;47.80
26579;DHT22;14227;47.674;19.320;2022-09-29T19:15:29;18.50;48.00
26579;DHT22;14227;47.674;19.320;2022-09-29T19:17:55;18.50;48.00
26579;DHT22;14227;47.674;19.320;2022-09-29T19:20:24;18.40;48.00
26579;DHT22;14227;47.674;19.320;2022-09-29T19:22:52;18.40;47.90
26579;DHT22;14227;47.674;19.320;2022-09-29T19:25:21;18.40;47.90
26579;DHT22;14227;47.674;19.320;2022-09-29T19:27:47;18.40;47.90
26579;DHT22;14227;47.674;19.320;2022-09-29T19:30:15;18.40;47.90
26579;DHT22;14227;47.674;19.320;2022-09-29T19:32:42;18.30;47.80
26579;DHT22;14227;47.674;19.320;2022-09-29T19:35:10;18.30;47.80
26579;DHT22;14227;47.674;19.320;2022-09-29T19:37:36;18.30;47.80
26579;DHT22;14227;47.674;19.320;2022-09-29T19:40:04;18.20;47.70
26579;DHT22;14227;47.674;19.320;2022-09-29T19:42:30;18.20;47.60
26579;DHT22;14227;47.674;19.320;2022-09-29T19:44:56;18.20;47.90
26579;DHT22;14227;47.674;19.320;2022-09-29T19:47:22;18.20;47.80
26579;DHT22;14227;47.674;19.320;2022-09-29T19:49:47;18.20;47.80
26579;DHT22;14227;47.674;19.320;2022-09-29T19:52:13;18.10;47.70
26579;DHT22;14227;47.674;19.320;2022-09-29T19:54:39;18.10;47.80
26579;DHT22;14227;47.674;19.320;2022-09-29T19:57:11;18.00;47.70
26579;DHT22;14227;47.674;19.320;2022-09-29T19:59:39;18.10;47.60